A- A+ FrançaisEnglishEspañol中国

Services sur Internet Soldes sur Internet Des idées de cadeaux Météo Météo aéro

La météo à : Autours de vous Tarbes-Lourdes-PyrénéesPontoise-Cormeilles-En-VexinChateauroux-Deols Paris-Orly

manche à air

La météo aéronautique pour les pilotes, la préparation du vol avec les METAR (METeorological Aerodrome Report, message d'observation des conditions météorologiques pour l'aviation) et Les TAF (Terminal Aerodrome Forecast : message de prévision à court terme des conditions météorologiques pour l'aviation). Et les autres ressources comme les VAC (Visual Approch Chart) et les NOTAM (Notice To Airman) pour préprer les vols.

Aéroport Cartwright (Canada) / OACI CYCA/ IATA YRF

L'altitude de l'aéroport Cartwright est de 12 m = 39 ft. Il est situé à proximité de Cartwright (Canada). La météo générale à 5 jours est disponible pour Cartwright situé à 4.4 km.

METAR de l'aéroport Cartwright - CYCA

CYCA 171800Z AUTO 20007KT 9SM CLR 10/02 A3001 RMK SLP165

Décodage du METAR de l'aéroport Cartwright (CA)

METAR émis par CYCA le jeudi 17 octobre 2019 à 18:00 heure TU. C'est un METAR généré automatiquement. Attention ce METAR est obsolète car il a été émis il y a 8 heure et 13 minutes.

La visibilité est de 14.5 km = 9 sm.

La température est de 10°C = 50 °F et le point rosée est de 2°C = 36 °F . Ce qui correspond à 58% d'humidité relative.

Le QNH est de 1016 hPa = 30 inHg

Vent de 7 kt = 13 km/h, orienté à 200°.

Pas de nuages.

RMK SLP165

TAF de l'aéroport Cartwright - CYCA

CYCA 150138Z 1502/1514 12012KT P6SM BKN040 BECMG 1502/1504 18010KT FM150800 18010KT P6SM FEW015 BKN030 TEMPO 1508/1514 6SM -RA BR BKN015 RMK FCST BASED ON AUTO OBS. NXT FCST BY 150800Z

CYCA 150138Z 1502/1514 12012KT P6SM couverture nuageuse fragmentée à 040 devenant 1502/1504 18010KT FM150800 18010KT P6SM quelques nuages à 015 couverture nuageuse fragmentée à 030 temporairement 1508/1514 6SM faible RA brume couverture nuageuse fragmentée à 015 remarques trombe ST BASED ON AUTO OBS. NXT trombe ST BY 150800Z

Aéroport à proximité de Cartwright

Météo générale à 5 jours à Cartwright (4.4 km)Aéroport Mary's Harbour (173 km)Aéroport Makkovik (208 km)Aéroport Goose Bay (227 km)Aéroport Lourdes Le Blanc Sablon (249 km)Aéroport St Anthony (263 km)Aéroport Hopedale (284 km)

Vue aérienne de l'aéroport Cartwright

NOTAM de l'aéroport Cartwright

Les NOTAM sont fournis sans aucune garantie de leur actualité. Le pilote est le seul responsable de la vérification de sa validité avant de l'utiliser opérationnellement pour préparer un vol ou l'utiliser lors de sa navigation.

Pas de NOTAM

Sources des données